Etusivu
METAR-TAF:

METAR-TAF

Lentoasemat :

Harare, Zimbabwe

Leveyspiiri: 17-55S, Pituuspiiri: 031-08E, korkeus merenpinnasta: 1479 m

Tämänhetkinen sää

Tämä raportti tehtiin 49 minuuttia sitten, kello 09.00 UTC
Tuuli 10 kn idästä, vaihdellen koillisen ja etelän/kaakon välillä
Lämpötila 27°C
Kosteus 39%
Ilmanpaine 1028 hPa
Näkyvyys 10 km tai enemmän
ei pilviä alle 1500 m:ssä eikä cumulonimbus-pilviä

METAR: FVHA 220900Z 10010KT 040V160 CAVOK 27/12 Q1028 NOSIG

Aika: 11:49 (09:49 UTC)

Sääennuste

Tämä raportti tehtiin 5 tuntia ja 49 minuuttia sitten, kello 04.00 UTC
Ennuste voimassa 22. päivästä klo 06 UTC - 23. päivään klo 12 UTC
Tuuli 9 kn kaakosta
Näkyvyys 10 km tai enemmän
ei pilviä alle 1500 m:ssä eikä cumulonimbus-pilviä

TAF: FVHA 220400Z 2206/2312 14009KT CAVOK

Säähavainnot ja -ennusteet yli 4000 lentoasemalta (METAR- ja TAF-raportit).

Käytössä olevat sääasemat on merkitty karttaan keltaisilla ja punaisilla pisteillä.

Aseta hiiri pisteen päälle nähdäksesi sääaseman nimen.

Klikkaa sitten nähdäksesi säähavainnot ja -ennusteet.

Kartan vaihtaminen: klikkaa mustalla rastilla varustettuja vihreitä pisteitä, niin voit zoomata sisään; viivalla varustettua vihreää pistettä, niin voit zoomata ulos tai vihreitä nuolia, niin pääset viereisille kartoille.


METAR-TAF: